createdAt,value
2019-01-21T00:00:57.982Z,0
2019-01-21T00:02:08.028Z,0
2019-01-21T00:03:24.641Z,0
2019-01-21T00:04:34.254Z,0
2019-01-21T00:05:44.059Z,0
2019-01-21T00:06:54.177Z,0
2019-01-21T00:08:05.836Z,0
2019-01-21T00:09:15.407Z,0
2019-01-21T00:10:25.223Z,0
2019-01-21T00:11:35.278Z,0
2019-01-21T00:12:45.343Z,0
2019-01-21T00:13:55.421Z,0
2019-01-21T00:15:06.847Z,0
2019-01-21T00:16:16.899Z,0
2019-01-21T00:17:32.159Z,0
2019-01-21T00:18:42.303Z,0
2019-01-21T00:19:52.388Z,0
2019-01-21T00:21:02.735Z,0
2019-01-21T00:22:12.559Z,0
2019-01-21T00:23:22.629Z,0
2019-01-21T00:24:32.704Z,0
2019-01-21T00:25:42.754Z,0
2019-01-21T00:26:52.822Z,0
2019-01-21T00:28:05.414Z,0
2019-01-21T00:29:15.575Z,0
2019-01-21T00:30:25.436Z,0
2019-01-21T00:31:35.518Z,0
2019-01-21T00:32:45.579Z,0
2019-01-21T00:33:55.650Z,0
2019-01-21T00:35:05.737Z,0
2019-01-21T00:36:15.804Z,0
2019-01-21T00:37:25.654Z,0
2019-01-21T00:38:35.740Z,0
2019-01-21T00:39:46.981Z,0
2019-01-21T00:40:57.043Z,0
2019-01-21T00:42:07.156Z,0
2019-01-21T00:43:17.214Z,0
2019-01-21T00:44:27.297Z,0
2019-01-21T00:45:37.846Z,0
2019-01-21T00:46:47.640Z,0
2019-01-21T00:47:57.984Z,0
2019-01-21T00:49:08.058Z,0
2019-01-21T00:50:19.172Z,0
2019-01-21T00:51:29.466Z,0
2019-01-21T00:52:39.289Z,0
2019-01-21T00:53:49.351Z,0
2019-01-21T00:55:01.333Z,0
2019-01-21T00:56:11.448Z,0
2019-01-21T00:57:21.245Z,0
2019-01-21T00:58:30.795Z,0
2019-01-21T00:59:40.596Z,0
2019-01-21T01:00:50.701Z,0
2019-01-21T01:02:00.869Z,0
2019-01-21T01:03:10.932Z,0
2019-01-21T01:04:21.237Z,0
2019-01-21T01:05:31.358Z,0
2019-01-21T01:06:41.480Z,0
2019-01-21T01:08:05.966Z,0
2019-01-21T01:09:15.779Z,0
2019-01-21T01:10:25.838Z,0
2019-01-21T01:11:35.878Z,0
2019-01-21T01:12:45.930Z,0
2019-01-21T01:13:56.041Z,0
2019-01-21T01:15:06.112Z,0
2019-01-21T01:16:15.653Z,0
2019-01-21T01:17:25.447Z,0
2019-01-21T01:18:35.245Z,0
2019-01-21T01:19:44.885Z,0
2019-01-21T01:20:54.968Z,0
2019-01-21T01:22:05.074Z,0
2019-01-21T01:23:14.882Z,0
2019-01-21T01:24:24.694Z,0
2019-01-21T01:25:34.818Z,0
2019-01-21T01:26:45.116Z,0
2019-01-21T01:27:55.168Z,0
2019-01-21T01:29:07.719Z,0
2019-01-21T01:30:17.793Z,0
2019-01-21T01:31:27.651Z,0
2019-01-21T01:32:37.702Z,0
2019-01-21T01:33:47.776Z,0
2019-01-21T01:34:57.822Z,0
2019-01-21T01:36:08.316Z,0
2019-01-21T01:37:18.432Z,0
2019-01-21T01:38:28.264Z,0
2019-01-21T01:39:38.329Z,0
2019-01-21T01:40:48.395Z,0
2019-01-21T01:41:58.472Z,0
2019-01-21T01:43:08.934Z,0
2019-01-21T01:44:19.361Z,0
2019-01-21T01:45:30.280Z,0
2019-01-21T01:46:40.753Z,0
2019-01-21T01:47:54.456Z,0
2019-01-21T01:49:05.426Z,0
2019-01-21T01:50:15.226Z,0
2019-01-21T01:51:25.295Z,0
2019-01-21T01:52:35.368Z,0
2019-01-21T01:53:45.463Z,0
2019-01-21T01:54:55.614Z,0
2019-01-21T01:56:06.233Z,0
2019-01-21T01:57:16.334Z,0
2019-01-21T01:58:26.429Z,0
2019-01-21T01:59:36.500Z,0
2019-01-21T02:00:46.377Z,0
2019-01-21T02:01:56.457Z,0
2019-01-21T02:03:06.534Z,0
2019-01-21T02:04:16.738Z,0
2019-01-21T02:05:26.854Z,0
2019-01-21T02:06:36.976Z,0
2019-01-21T02:07:47.110Z,0
2019-01-21T02:08:56.933Z,0
2019-01-21T02:10:07.385Z,0
2019-01-21T02:11:17.244Z,0
2019-01-21T02:12:27.058Z,0
2019-01-21T02:13:37.384Z,0
2019-01-21T02:14:47.691Z,0
2019-01-21T02:15:58.478Z,0
2019-01-21T02:17:09.535Z,0
2019-01-21T02:18:20.073Z,0
2019-01-21T02:19:30.723Z,0
2019-01-21T02:20:41.026Z,0
2019-01-21T02:21:51.115Z,0
2019-01-21T02:23:00.933Z,0
2019-01-21T02:24:10.762Z,0
2019-01-21T02:25:20.613Z,0
2019-01-21T02:26:30.683Z,0
2019-01-21T02:27:40.504Z,0
2019-01-21T02:28:50.587Z,0
2019-01-21T02:30:02.350Z,0
2019-01-21T02:31:12.411Z,0
2019-01-21T02:32:22.247Z,0
2019-01-21T02:33:32.320Z,0
2019-01-21T02:34:42.418Z,0
2019-01-21T02:35:52.498Z,0
2019-01-21T02:37:02.600Z,0
2019-01-21T02:38:13.747Z,0
2019-01-21T02:39:24.128Z,0
2019-01-21T02:40:33.703Z,0
2019-01-21T02:41:43.839Z,0
2019-01-21T02:42:53.925Z,0
2019-01-21T02:44:04.027Z,0
2019-01-21T02:45:13.852Z,0
2019-01-21T02:46:23.719Z,0
2019-01-21T02:47:33.881Z,0
2019-01-21T02:48:43.952Z,0
2019-01-21T02:49:53.550Z,0
2019-01-21T02:51:04.374Z,0
2019-01-21T02:52:15.186Z,0
2019-01-21T02:53:25.816Z,0
2019-01-21T02:54:36.505Z,0
2019-01-21T02:55:46.773Z,0
2019-01-21T02:56:56.867Z,0
2019-01-21T02:58:06.973Z,0
2019-01-21T02:59:17.043Z,0
2019-01-21T03:00:27.672Z,0
2019-01-21T03:01:37.241Z,0
2019-01-21T03:02:47.513Z,0
2019-01-21T03:35:00.725Z,0
2019-01-21T03:36:11.122Z,0
2019-01-21T03:37:21.065Z,0
2019-01-21T03:38:30.643Z,0
2019-01-21T03:39:40.479Z,0
2019-01-21T03:40:50.606Z,0
2019-01-21T03:42:00.704Z,0
2019-01-21T03:43:11.844Z,0
2019-01-21T03:44:22.484Z,0
2019-01-21T03:45:33.237Z,0
2019-01-21T03:46:43.875Z,0
2019-01-21T03:47:53.980Z,0
2019-01-21T03:49:04.317Z,0
2019-01-21T03:50:14.512Z,0
2019-01-21T03:51:24.321Z,0
2019-01-21T03:52:34.203Z,0
2019-01-21T03:53:44.321Z,0
2019-01-21T03:54:54.887Z,0
2019-01-21T03:56:04.999Z,0
2019-01-21T03:57:15.107Z,0
2019-01-21T03:58:25.692Z,0
2019-01-21T03:59:35.815Z,0
2019-01-21T04:00:45.675Z,0
2019-01-21T04:01:55.965Z,0
2019-01-21T04:03:05.798Z,0
2019-01-21T04:04:15.975Z,0
2019-01-21T04:05:26.073Z,0
2019-01-21T04:06:35.917Z,0
2019-01-21T04:07:46.030Z,0
2019-01-21T04:08:56.118Z,0
2019-01-21T04:10:08.774Z,0
2019-01-21T04:11:18.872Z,0
2019-01-21T04:12:28.938Z,0
2019-01-21T04:13:39.037Z,0
2019-01-21T04:14:49.111Z,0
2019-01-21T04:15:59.015Z,0
2019-01-21T04:17:10.607Z,0
2019-01-21T04:18:26.978Z,0
2019-01-21T04:19:37.661Z,0
2019-01-21T04:20:48.075Z,0
2019-01-21T04:21:58.243Z,0
2019-01-21T04:23:08.123Z,0
2019-01-21T04:24:18.291Z,0
2019-01-21T04:25:28.121Z,0
2019-01-21T04:26:38.216Z,0
2019-01-21T04:27:48.043Z,0
2019-01-21T04:28:58.130Z,0
2019-01-21T04:30:08.556Z,0
2019-01-21T04:31:18.650Z,0
2019-01-21T04:32:28.469Z,0
2019-01-21T04:33:38.561Z,0
2019-01-21T04:34:48.653Z,0
2019-01-21T04:35:58.723Z,0
2019-01-21T04:37:08.810Z,0
2019-01-21T04:38:18.901Z,0
2019-01-21T04:39:29.077Z,0
2019-01-21T04:40:38.896Z,0
2019-01-21T04:41:48.460Z,0
2019-01-21T04:42:58.563Z,0
2019-01-21T04:44:08.679Z,0
2019-01-21T04:45:18.780Z,0
2019-01-21T04:46:28.953Z,0
2019-01-21T04:47:39.023Z,0
2019-01-21T04:48:49.127Z,0
2019-01-21T04:49:59.310Z,0
2019-01-21T04:51:09.421Z,0
2019-01-21T04:52:19.838Z,0
2019-01-21T04:53:30.291Z,0
2019-01-21T04:54:41.057Z,0
2019-01-21T04:55:51.830Z,0
2019-01-21T04:57:02.369Z,0
2019-01-21T04:58:12.627Z,0
2019-01-21T04:59:22.535Z,0
2019-01-21T05:00:32.810Z,0
2019-01-21T05:01:42.886Z,0
2019-01-21T05:02:52.721Z,0
2019-01-21T05:04:02.821Z,0
2019-01-21T05:05:12.913Z,0
2019-01-21T05:06:23.045Z,0
2019-01-21T05:07:32.864Z,0
2019-01-21T05:08:43.002Z,0
2019-01-21T05:09:53.095Z,0
2019-01-21T05:11:03.178Z,0
2019-01-21T05:12:13.313Z,0
2019-01-21T05:13:23.378Z,0
2019-01-21T05:14:33.209Z,0
2019-01-21T05:15:43.045Z,0
2019-01-21T05:16:53.118Z,0
2019-01-21T05:18:03.187Z,0
2019-01-21T05:19:13.019Z,0
2019-01-21T05:20:23.135Z,0
2019-01-21T05:21:33.209Z,0
2019-01-21T05:22:43.030Z,0
2019-01-21T05:23:53.125Z,0
2019-01-21T05:25:05.260Z,0
2019-01-21T05:26:15.396Z,0
2019-01-21T05:27:25.501Z,0
2019-01-21T05:28:35.703Z,0
2019-01-21T05:29:46.032Z,0
2019-01-21T05:30:56.251Z,0
2019-01-21T05:32:08.427Z,0
2019-01-21T05:33:19.328Z,0
2019-01-21T05:34:30.026Z,0
2019-01-21T05:35:40.500Z,0
2019-01-21T05:36:50.723Z,0
2019-01-21T05:38:03.428Z,0
2019-01-21T05:39:13.254Z,0
2019-01-21T05:40:23.361Z,0
2019-01-21T05:41:33.664Z,0
2019-01-21T05:42:43.484Z,0
2019-01-21T05:43:53.305Z,0
2019-01-21T05:45:03.374Z,0
2019-01-21T05:46:13.199Z,0
2019-01-21T05:47:23.306Z,0
2019-01-21T05:48:33.378Z,0
2019-01-21T05:49:43.489Z,0
2019-01-21T05:50:53.314Z,0
2019-01-21T05:52:03.175Z,0
2019-01-21T05:53:13.242Z,0
2019-01-21T05:54:23.306Z,0
2019-01-21T05:55:33.376Z,0
2019-01-21T05:56:42.933Z,0
2019-01-21T05:57:52.748Z,0
2019-01-21T05:59:05.415Z,0
2019-01-21T06:00:16.025Z,0
2019-01-21T06:01:25.876Z,0
2019-01-21T06:02:35.940Z,0
2019-01-21T06:03:45.998Z,0
2019-01-21T06:04:56.266Z,0
2019-01-21T06:06:06.302Z,0
2019-01-21T06:07:16.155Z,0
2019-01-21T06:08:25.987Z,0
2019-01-21T06:09:35.794Z,0
2019-01-21T06:10:45.852Z,0
2019-01-21T06:11:55.912Z,0
2019-01-21T06:13:05.993Z,0
2019-01-21T06:14:16.063Z,0
2019-01-21T06:15:26.129Z,0
2019-01-21T06:16:36.237Z,0
2019-01-21T06:17:46.080Z,0
2019-01-21T06:19:04.423Z,0
2019-01-21T06:20:14.247Z,0
2019-01-21T06:21:24.320Z,0
2019-01-21T06:22:34.384Z,0
2019-01-21T06:23:44.643Z,0
2019-01-21T06:24:55.541Z,0
2019-01-21T06:26:05.361Z,0
2019-01-21T06:27:15.239Z,0
2019-01-21T06:28:25.358Z,0
2019-01-21T06:29:35.434Z,0
2019-01-21T06:30:45.213Z,0
2019-01-21T06:31:55.007Z,0
2019-01-21T06:33:06.839Z,0
2019-01-21T06:34:17.130Z,0
2019-01-21T06:35:27.276Z,5
2019-01-21T06:36:37.077Z,5
2019-01-21T06:37:47.409Z,5
2019-01-21T06:38:57.449Z,5
2019-01-21T06:40:07.243Z,5
2019-01-21T06:41:17.305Z,5
2019-01-21T06:42:27.366Z,5
2019-01-21T06:43:37.409Z,5
2019-01-21T06:44:47.473Z,10
2019-01-21T06:45:57.284Z,10
2019-01-21T06:47:07.339Z,10
2019-01-21T06:48:17.392Z,10
2019-01-21T06:49:27.681Z,10
2019-01-21T06:50:37.575Z,10
2019-01-21T06:51:47.370Z,15
2019-01-21T06:52:57.412Z,15
2019-01-21T06:54:09.113Z,15
2019-01-21T06:55:19.164Z,15
2019-01-21T06:56:29.599Z,15
2019-01-21T06:57:39.513Z,20
2019-01-21T06:58:49.565Z,20
2019-01-21T06:59:59.599Z,20
2019-01-21T07:01:09.389Z,20
2019-01-21T07:02:19.197Z,20
2019-01-21T07:03:29.559Z,25
2019-01-21T07:04:39.392Z,25
2019-01-21T07:05:49.515Z,25
2019-01-21T07:06:59.621Z,25
2019-01-21T07:08:09.880Z,25
2019-01-21T07:09:19.907Z,30
2019-01-21T07:10:29.973Z,30
2019-01-21T07:11:40.040Z,30
2019-01-21T07:12:50.935Z,30
2019-01-21T07:14:01.219Z,35
2019-01-21T07:15:11.286Z,35
2019-01-21T07:16:21.312Z,35
2019-01-21T07:17:31.432Z,35
2019-01-21T07:18:41.474Z,40
2019-01-21T07:19:53.562Z,40
2019-01-21T07:21:03.614Z,40
2019-01-21T07:22:13.708Z,40
2019-01-21T07:23:23.749Z,40
2019-01-21T07:24:33.551Z,45
2019-01-21T07:25:43.606Z,40
2019-01-21T07:26:53.142Z,40
2019-01-21T07:28:02.969Z,40
2019-01-21T07:29:12.784Z,45
2019-01-21T07:30:22.585Z,45
2019-01-21T07:31:32.370Z,45
2019-01-21T07:32:42.416Z,45
2019-01-21T07:33:52.328Z,50
2019-01-21T07:35:02.374Z,50
2019-01-21T07:36:12.426Z,50
2019-01-21T07:37:22.268Z,50
2019-01-21T07:38:32.301Z,55
2019-01-21T07:39:43.346Z,55
2019-01-21T07:40:53.398Z,55
2019-01-21T07:42:03.202Z,55
2019-01-21T07:43:13.019Z,55
2019-01-21T07:44:22.571Z,60
2019-01-21T07:45:32.638Z,60
2019-01-21T07:46:42.430Z,60
2019-01-21T07:47:52.234Z,60
2019-01-21T07:49:02.353Z,60
2019-01-21T07:50:12.556Z,60
2019-01-21T07:51:37.246Z,65
2019-01-21T07:52:47.355Z,65
2019-01-21T07:53:57.192Z,65
2019-01-21T07:55:07.273Z,65
2019-01-21T07:56:17.372Z,70
2019-01-21T07:57:27.269Z,70
2019-01-21T07:58:37.305Z,70
2019-01-21T07:59:47.370Z,70
2019-01-21T08:00:57.153Z,70
2019-01-21T08:02:06.934Z,75
2019-01-21T08:03:17.048Z,75
2019-01-21T08:04:26.597Z,75
2019-01-21T08:05:36.637Z,75
2019-01-21T08:06:47.860Z,75
2019-01-21T08:07:57.907Z,80
2019-01-21T08:09:09.977Z,80
2019-01-21T08:10:20.018Z,80
2019-01-21T08:11:30.070Z,80
2019-01-21T08:12:40.099Z,80
2019-01-21T08:13:50.179Z,80
2019-01-21T08:15:00.272Z,85
2019-01-21T08:16:10.629Z,85
2019-01-21T08:17:20.741Z,85
2019-01-21T08:18:30.586Z,85
2019-01-21T08:19:40.389Z,85
2019-01-21T08:20:50.456Z,90
2019-01-21T08:22:01.231Z,90
2019-01-21T08:23:11.897Z,90
2019-01-21T08:24:21.716Z,90
2019-01-21T08:25:31.782Z,90
2019-01-21T08:26:41.904Z,90
2019-01-21T08:27:51.462Z,90
2019-01-21T08:29:03.230Z,90
2019-01-21T08:30:12.761Z,90
2019-01-21T08:31:22.800Z,90
2019-01-21T08:32:32.869Z,90
2019-01-21T08:33:42.954Z,95
2019-01-21T08:34:53.016Z,95
2019-01-21T08:36:04.626Z,95
2019-01-21T08:37:14.669Z,95
2019-01-21T08:38:24.481Z,95
2019-01-21T08:39:34.548Z,95
2019-01-21T08:40:44.695Z,95
2019-01-21T08:41:54.856Z,100
2019-01-21T08:43:04.886Z,100
2019-01-21T08:44:15.037Z,100
2019-01-21T08:45:25.096Z,100
2019-01-21T08:46:35.362Z,115
2019-01-21T08:47:45.160Z,140
2019-01-21T08:48:55.314Z,140
2019-01-21T08:50:07.166Z,150
2019-01-21T08:51:17.231Z,180
2019-01-21T08:52:27.280Z,195
2019-01-21T08:53:36.841Z,200
2019-01-21T08:54:46.888Z,200
2019-01-21T08:55:56.698Z,200
2019-01-21T08:57:06.747Z,205
2019-01-21T08:58:16.303Z,220
2019-01-21T08:59:26.380Z,210
2019-01-21T09:00:35.910Z,170
2019-01-21T09:01:45.708Z,135
2019-01-21T09:02:55.517Z,125
2019-01-21T09:04:05.885Z,150
2019-01-21T09:05:15.953Z,180
2019-01-21T09:06:26.010Z,155
2019-01-21T09:07:35.844Z,120
2019-01-21T09:08:47.136Z,115
2019-01-21T09:09:57.209Z,115
2019-01-21T09:11:07.584Z,115
2019-01-21T09:12:17.678Z,115
2019-01-21T09:13:27.727Z,115
2019-01-21T09:14:37.893Z,120
2019-01-21T09:15:47.714Z,115
2019-01-21T09:16:57.770Z,115
2019-01-21T09:18:07.811Z,120
2019-01-21T09:19:17.858Z,120
2019-01-21T09:20:27.912Z,120
2019-01-21T09:21:38.172Z,120
2019-01-21T09:22:48.227Z,120
2019-01-21T09:23:58.278Z,120
2019-01-21T09:25:08.605Z,120
2019-01-21T09:26:18.379Z,120
2019-01-21T09:27:28.478Z,120
2019-01-21T09:28:38.285Z,125
2019-01-21T09:29:48.325Z,125
2019-01-21T09:30:58.421Z,125
2019-01-21T09:32:10.146Z,125
2019-01-21T09:33:20.257Z,125
2019-01-21T09:34:30.317Z,125
2019-01-21T09:35:40.372Z,125
2019-01-21T09:36:50.440Z,125
2019-01-21T09:38:01.599Z,125
2019-01-21T09:39:13.020Z,130
2019-01-21T09:40:23.075Z,130
2019-01-21T09:41:33.192Z,130
2019-01-21T09:42:42.977Z,130
2019-01-21T09:43:53.051Z,130
2019-01-21T09:45:04.485Z,130
2019-01-21T09:46:14.321Z,130
2019-01-21T09:47:24.453Z,130
2019-01-21T09:48:34.514Z,130
2019-01-21T09:49:50.622Z,130
2019-01-21T09:51:00.668Z,130
2019-01-21T09:52:11.088Z,130
2019-01-21T09:53:21.158Z,130
2019-01-21T09:54:31.232Z,135
2019-01-21T09:55:41.357Z,135
2019-01-21T09:56:51.422Z,135
2019-01-21T09:58:03.376Z,135
2019-01-21T09:59:13.429Z,135
2019-01-21T10:00:24.157Z,140
2019-01-21T10:01:33.992Z,140
2019-01-21T10:02:44.713Z,140
2019-01-21T10:03:54.758Z,140
2019-01-21T10:05:05.076Z,140
2019-01-21T10:06:15.126Z,140
2019-01-21T10:07:25.202Z,140
2019-01-21T10:08:35.271Z,140
2019-01-21T10:09:44.845Z,140
2019-01-21T10:10:54.653Z,140
2019-01-21T10:12:04.721Z,140
2019-01-21T10:13:14.789Z,140
2019-01-21T10:14:24.919Z,140
2019-01-21T10:15:35.034Z,140
2019-01-21T10:16:45.113Z,140
2019-01-21T10:18:09.873Z,140
2019-01-21T10:19:19.932Z,140
2019-01-21T10:20:29.987Z,140
2019-01-21T10:21:40.053Z,140
2019-01-21T10:22:50.109Z,140
2019-01-21T10:23:59.929Z,140
2019-01-21T10:25:10.005Z,140
2019-01-21T10:26:20.064Z,140
2019-01-21T10:27:30.119Z,140
2019-01-21T10:28:40.034Z,140
2019-01-21T10:29:50.196Z,140
2019-01-21T10:31:00.375Z,140
2019-01-21T10:32:10.471Z,145
2019-01-21T10:33:20.539Z,145
2019-01-21T10:34:31.023Z,140
2019-01-21T10:35:41.075Z,140
2019-01-21T10:36:50.900Z,140
2019-01-21T10:38:00.912Z,140
2019-01-21T10:39:10.454Z,145
2019-01-21T10:40:20.001Z,145
2019-01-21T10:41:29.824Z,145
2019-01-21T10:42:40.076Z,145
2019-01-21T10:43:50.138Z,145
2019-01-21T10:45:02.201Z,145
2019-01-21T10:46:12.274Z,145
2019-01-21T10:47:22.325Z,145
2019-01-21T10:48:32.501Z,145
2019-01-21T10:49:42.648Z,145
2019-01-21T10:50:52.704Z,145
2019-01-21T10:52:03.424Z,145
2019-01-21T10:53:13.552Z,145
2019-01-21T10:54:23.609Z,145
2019-01-21T10:55:33.662Z,145
2019-01-21T10:56:43.783Z,145
2019-01-21T10:57:53.842Z,150
2019-01-21T10:59:03.960Z,150
2019-01-21T11:00:14.535Z,145
2019-01-21T11:01:24.848Z,150
2019-01-21T11:02:34.985Z,150
2019-01-21T11:03:44.538Z,150
2019-01-21T11:04:54.607Z,150
2019-01-21T11:06:05.866Z,150
2019-01-21T11:07:16.163Z,150
2019-01-21T11:08:26.422Z,150
2019-01-21T11:09:36.573Z,150
2019-01-21T11:10:46.856Z,150
2019-01-21T11:12:03.511Z,150
2019-01-21T11:13:13.576Z,150
2019-01-21T11:14:23.762Z,150
2019-01-21T11:15:33.883Z,155
2019-01-21T11:16:43.426Z,155
2019-01-21T11:17:53.672Z,155
2019-01-21T11:19:03.736Z,155
2019-01-21T11:20:14.075Z,150
2019-01-21T11:21:23.629Z,155
2019-01-21T11:22:33.429Z,155
2019-01-21T11:23:43.495Z,150
2019-01-21T11:24:53.565Z,150
2019-01-21T11:26:03.353Z,150
2019-01-21T11:27:13.474Z,150
2019-01-21T11:28:23.547Z,155
2019-01-21T11:29:33.615Z,150
2019-01-21T11:30:43.740Z,150
2019-01-21T11:31:53.890Z,155
2019-01-21T11:33:04.120Z,155
2019-01-21T11:34:14.186Z,155
2019-01-21T11:35:23.985Z,150
2019-01-21T11:36:34.030Z,150
2019-01-21T11:37:44.193Z,150
2019-01-21T11:38:54.324Z,150
2019-01-21T11:40:04.111Z,150
2019-01-21T11:41:14.194Z,155
2019-01-21T11:42:23.525Z,155
2019-01-21T11:43:34.196Z,155
2019-01-21T11:44:44.309Z,155
2019-01-21T11:45:54.463Z,155
2019-01-21T11:47:05.626Z,155
2019-01-21T11:48:15.767Z,155
2019-01-21T11:49:25.570Z,155
2019-01-21T11:50:36.407Z,155
2019-01-21T11:51:46.249Z,155
2019-01-21T11:52:55.822Z,150
2019-01-21T11:54:05.929Z,150
2019-01-21T11:55:15.748Z,150
2019-01-21T11:56:25.544Z,150
2019-01-21T11:57:35.594Z,150
2019-01-21T11:58:45.956Z,145
2019-01-21T11:59:56.067Z,150
2019-01-21T12:01:06.870Z,150
2019-01-21T12:02:16.927Z,150
2019-01-21T12:03:33.086Z,150
2019-01-21T12:04:43.167Z,145
2019-01-21T12:05:53.228Z,145
2019-01-21T12:07:03.331Z,150
2019-01-21T12:08:13.408Z,150
2019-01-21T12:09:23.856Z,150
2019-01-21T12:10:33.943Z,150
2019-01-21T12:11:44.011Z,150
2019-01-21T12:12:54.071Z,145
2019-01-21T12:14:04.165Z,145
2019-01-21T12:15:14.349Z,145
2019-01-21T12:16:24.424Z,145
2019-01-21T12:17:34.506Z,145
2019-01-21T12:18:44.488Z,150
2019-01-21T12:19:54.560Z,140
2019-01-21T12:21:04.652Z,145
2019-01-21T12:22:14.462Z,150
2019-01-21T12:23:24.581Z,145
2019-01-21T12:24:34.641Z,150
2019-01-21T12:25:44.435Z,145
2019-01-21T12:26:53.986Z,150
2019-01-21T12:28:05.264Z,145
2019-01-21T12:29:15.415Z,145
2019-01-21T12:30:25.510Z,145
2019-01-21T12:31:35.568Z,150
2019-01-21T12:32:45.385Z,145
2019-01-21T12:33:55.443Z,145
2019-01-21T12:35:05.528Z,145
2019-01-21T12:36:15.440Z,150
2019-01-21T12:37:25.129Z,140
2019-01-21T12:38:35.236Z,135
2019-01-21T12:39:45.287Z,135
2019-01-21T12:40:55.409Z,135
2019-01-21T12:42:05.473Z,135
2019-01-21T12:43:15.295Z,135
2019-01-21T12:44:25.343Z,145
2019-01-21T12:45:35.410Z,155
2019-01-21T12:46:46.771Z,160
2019-01-21T12:47:56.055Z,170
2019-01-21T12:49:06.158Z,190
2019-01-21T12:50:16.515Z,220
2019-01-21T12:51:26.608Z,270
2019-01-21T12:52:36.712Z,235
2019-01-21T12:53:46.266Z,145
2019-01-21T12:54:56.635Z,135
2019-01-21T12:56:06.800Z,130
2019-01-21T12:57:16.651Z,155
2019-01-21T12:58:26.732Z,230
2019-01-21T12:59:36.996Z,230
2019-01-21T13:00:47.097Z,215
2019-01-21T13:01:57.230Z,240
2019-01-21T13:03:07.359Z,235
2019-01-21T13:04:17.425Z,225
2019-01-21T13:05:27.487Z,170
2019-01-21T13:06:37.577Z,125
2019-01-21T13:07:47.669Z,125
2019-01-21T13:08:57.764Z,125
2019-01-21T13:10:07.586Z,120
2019-01-21T13:11:17.657Z,120
2019-01-21T13:12:27.715Z,120
2019-01-21T13:13:37.834Z,115
2019-01-21T13:14:47.927Z,115
2019-01-21T13:15:57.999Z,115
2019-01-21T13:17:08.077Z,115
2019-01-21T13:18:18.160Z,115
2019-01-21T13:19:28.781Z,110
2019-01-21T13:20:40.439Z,110
2019-01-21T13:21:50.239Z,110
2019-01-21T13:23:01.277Z,110
2019-01-21T13:24:11.583Z,105
2019-01-21T13:25:21.678Z,105
2019-01-21T13:26:31.747Z,105
2019-01-21T13:27:41.909Z,105
2019-01-21T13:28:51.764Z,105
2019-01-21T13:30:03.341Z,105
2019-01-21T13:31:13.457Z,100
2019-01-21T13:32:23.508Z,100
2019-01-21T13:33:33.329Z,100
2019-01-21T13:34:43.414Z,100
2019-01-21T13:35:53.754Z,100
2019-01-21T13:37:03.860Z,95
2019-01-21T13:38:13.909Z,95
2019-01-21T13:39:24.072Z,95
2019-01-21T13:40:33.886Z,95
2019-01-21T13:41:43.954Z,95
2019-01-21T13:42:54.005Z,95
2019-01-21T13:44:04.071Z,95
2019-01-21T13:45:14.200Z,95
2019-01-21T13:46:24.297Z,90
2019-01-21T13:47:33.887Z,90
2019-01-21T13:48:44.013Z,90
2019-01-21T13:49:55.359Z,90
2019-01-21T13:51:05.419Z,90
2019-01-21T13:52:15.104Z,85
2019-01-21T13:53:25.205Z,85
2019-01-21T13:54:35.106Z,85
2019-01-21T13:55:45.164Z,85
2019-01-21T13:56:55.265Z,85
2019-01-21T13:58:05.345Z,85
2019-01-21T13:59:15.434Z,85
2019-01-21T14:00:25.496Z,80
2019-01-21T14:01:35.578Z,80
2019-01-21T14:02:45.653Z,80
2019-01-21T14:03:56.049Z,80
2019-01-21T14:05:06.115Z,80
2019-01-21T14:06:16.182Z,75
2019-01-21T14:07:26.347Z,75
2019-01-21T14:08:36.468Z,75
2019-01-21T14:09:47.351Z,75
2019-01-21T14:10:57.688Z,75
2019-01-21T14:12:08.811Z,75
2019-01-21T14:13:18.629Z,70
2019-01-21T14:14:28.836Z,70
2019-01-21T14:15:38.942Z,70
2019-01-21T14:16:49.134Z,70
2019-01-21T14:17:59.224Z,70
2019-01-21T14:19:09.564Z,65
2019-01-21T14:20:24.045Z,65
2019-01-21T14:21:34.693Z,65
2019-01-21T14:22:44.819Z,65
2019-01-21T14:23:54.884Z,65
2019-01-21T14:25:04.965Z,65
2019-01-21T14:26:15.568Z,65
2019-01-21T14:27:25.656Z,60
2019-01-21T14:28:35.725Z,60
2019-01-21T14:29:45.802Z,60
2019-01-21T14:30:55.928Z,55
2019-01-21T14:32:07.707Z,55
2019-01-21T14:33:17.830Z,55
2019-01-21T14:34:27.882Z,55
2019-01-21T14:35:38.144Z,55
2019-01-21T14:36:48.459Z,50
2019-01-21T14:37:58.422Z,50
2019-01-21T14:39:08.590Z,45
2019-01-21T14:40:18.731Z,45
2019-01-21T14:41:29.132Z,45
2019-01-21T14:42:39.245Z,45
2019-01-21T14:43:48.827Z,40
2019-01-21T14:44:58.903Z,40
2019-01-21T14:46:10.237Z,45
2019-01-21T14:47:20.500Z,40
2019-01-21T14:48:30.341Z,40
2019-01-21T14:49:40.474Z,40
2019-01-21T14:50:55.030Z,35
2019-01-21T14:52:05.321Z,35
2019-01-21T14:53:15.804Z,35
2019-01-21T14:54:25.432Z,35
2019-01-21T14:55:35.520Z,30
2019-01-21T14:56:45.735Z,30
2019-01-21T14:57:55.844Z,30
2019-01-21T14:59:06.891Z,30
2019-01-21T15:00:17.371Z,25
2019-01-21T15:01:27.397Z,25
2019-01-21T15:02:37.400Z,25
2019-01-21T15:03:47.598Z,25
2019-01-21T15:04:57.929Z,25
2019-01-21T15:06:10.303Z,20
2019-01-21T15:07:20.455Z,20
2019-01-21T15:08:30.690Z,20
2019-01-21T15:09:40.684Z,20
2019-01-21T15:10:50.956Z,20
2019-01-21T15:12:00.868Z,15
2019-01-21T15:13:11.975Z,15
2019-01-21T15:14:22.315Z,15
2019-01-21T15:15:32.590Z,15
2019-01-21T15:16:42.452Z,15
2019-01-21T15:17:52.705Z,15
2019-01-21T15:19:03.047Z,10
2019-01-21T15:20:29.376Z,10
2019-01-21T15:21:39.641Z,10
2019-01-21T15:22:49.719Z,10
2019-01-21T15:24:02.603Z,10
2019-01-21T15:25:13.867Z,10
2019-01-21T15:26:24.204Z,5
2019-01-21T15:27:34.767Z,5
2019-01-21T15:28:45.175Z,5
2019-01-21T15:29:55.407Z,5
2019-01-21T15:31:07.680Z,5
2019-01-21T15:32:18.524Z,5
2019-01-21T15:33:28.944Z,5
2019-01-21T15:34:39.319Z,5
2019-01-21T15:35:49.545Z,0
2019-01-21T15:36:59.979Z,0
2019-01-21T15:38:13.377Z,0
2019-01-21T15:39:23.613Z,0
2019-01-21T15:40:33.985Z,0
2019-01-21T15:41:44.778Z,0
2019-01-21T15:42:56.441Z,0
2019-01-21T15:44:06.894Z,0
2019-01-21T15:45:17.325Z,0
2019-01-21T15:46:27.416Z,0
2019-01-21T15:47:37.786Z,0
2019-01-21T15:48:47.655Z,0
2019-01-21T15:49:57.546Z,0
2019-01-21T15:51:14.350Z,0
2019-01-21T15:52:24.225Z,0
2019-01-21T15:53:34.280Z,0
2019-01-21T15:54:44.101Z,0
2019-01-21T15:55:53.973Z,0
2019-01-21T15:57:04.089Z,0
2019-01-21T15:58:21.492Z,0
2019-01-21T15:59:31.329Z,0
2019-01-21T16:00:41.419Z,0
2019-01-21T16:01:51.530Z,0
2019-01-21T16:03:01.629Z,0
2019-01-21T16:04:11.724Z,0
2019-01-21T16:05:22.097Z,0
2019-01-21T16:06:32.294Z,0
2019-01-21T16:07:42.373Z,0
2019-01-21T16:08:52.195Z,0
2019-01-21T16:10:02.294Z,0
2019-01-21T16:11:12.369Z,0
2019-01-21T16:12:22.197Z,0
2019-01-21T16:13:32.311Z,0
2019-01-21T16:14:42.913Z,0
2019-01-21T16:15:53.046Z,0
2019-01-21T16:17:05.367Z,0
2019-01-21T16:18:15.583Z,0
2019-01-21T16:19:25.949Z,0
2019-01-21T16:20:36.872Z,0
2019-01-21T16:21:48.229Z,0
2019-01-21T16:22:58.814Z,0
2019-01-21T16:24:10.158Z,0
2019-01-21T16:25:35.858Z,0
2019-01-21T16:26:45.788Z,0
2019-01-21T16:27:55.893Z,0
2019-01-21T16:29:09.663Z,0
2019-01-21T16:30:19.508Z,0
2019-01-21T16:31:29.342Z,0
2019-01-21T16:32:39.479Z,0
2019-01-21T16:33:49.553Z,0
2019-01-21T16:34:59.705Z,0
2019-01-21T16:36:10.457Z,0
2019-01-21T16:37:20.528Z,0
2019-01-21T16:38:30.627Z,0
2019-01-21T16:39:40.705Z,0
2019-01-21T16:40:50.546Z,0
2019-01-21T16:42:00.701Z,0
2019-01-21T16:43:10.519Z,0
2019-01-21T16:44:35.550Z,0
2019-01-21T16:45:45.682Z,0
2019-01-21T16:46:55.845Z,0
2019-01-21T16:48:06.034Z,0
2019-01-21T16:49:17.789Z,0
2019-01-21T16:50:28.181Z,0
2019-01-21T16:51:38.482Z,0
2019-01-21T16:52:48.392Z,0
2019-01-21T16:53:59.209Z,0
2019-01-21T16:55:09.447Z,0
2019-01-21T16:56:20.126Z,0
2019-01-21T16:57:30.956Z,0
2019-01-21T16:58:41.556Z,0
2019-01-21T16:59:52.352Z,0
2019-01-21T17:01:02.702Z,0
2019-01-21T17:02:13.379Z,0
2019-01-21T17:03:23.983Z,0
2019-01-21T17:04:35.539Z,0
2019-01-21T17:05:46.123Z,0
2019-01-21T17:06:57.190Z,0
2019-01-21T17:08:08.309Z,0
2019-01-21T17:09:20.134Z,0
2019-01-21T17:10:31.349Z,0
2019-01-21T17:11:41.685Z,0
2019-01-21T17:12:52.056Z,0
2019-01-21T17:14:02.165Z,0
2019-01-21T17:15:13.725Z,0
2019-01-21T17:16:24.066Z,0
2019-01-21T17:17:34.183Z,0
2019-01-21T17:18:44.295Z,0
2019-01-21T17:19:54.517Z,0
2019-01-21T17:21:04.414Z,0
2019-01-21T17:22:14.260Z,0